Terminal Aerodrome Forecast
Issued by NWS Milwaukee/Sullivan, WI

Home | Current Version | Previous Version | Text Only | Print | Product List | Glossary On
Versions: 1 2 3 4 5 6 7 8 9 10 11 12 13 14 15 16 17 18 19 20 21 22 23 24 25 26 27 28 29 30 31 32 33 34 35 36 37 38 39 40 41 42 43 44 45 46
000
FTUS43 KMKX 251128
TAFMSN
TAF
KMSN 251128Z 2512/2612 16013KT 6SM -SHRA BR SCT007 OVC015
      TEMPO 2512/2515 3SM BR BKN007 OVC015
     FM251500 21012G19KT P6SM VCSH OVC015
     FM251800 24015G25KT P6SM BKN060
     FM252000 23017G27KT P6SM SCT090
     FM260000 21013G21KT P6SM SCT150
     FM260300 19009KT P6SM SCT250 WS020/22035KT
     FM260900 20008KT P6SM VCSH BKN050=

USA.gov is the U.S. government's official web portal to all federal, state and local government web resources and services.